createdAt,value
2023-11-25T00:01:24.595Z,5.93
2023-11-25T00:03:41.635Z,9.50
2023-11-25T00:05:58.616Z,6.80
2023-11-25T00:08:15.530Z,4.80
2023-11-25T00:10:32.429Z,6.45
2023-11-25T00:12:49.653Z,6.00
2023-11-25T00:15:06.564Z,9.23
2023-11-25T00:17:23.479Z,3.83
2023-11-25T00:19:40.412Z,5.72
2023-11-25T00:21:57.321Z,7.03
2023-11-25T00:24:14.240Z,5.68
2023-11-25T00:26:31.095Z,3.10
2023-11-25T00:28:47.933Z,6.82
2023-11-25T00:31:04.872Z,8.15
2023-11-25T00:33:21.869Z,6.60
2023-11-25T00:35:38.729Z,7.05
2023-11-25T00:37:55.601Z,7.40
2023-11-25T00:40:12.557Z,8.32
2023-11-25T00:42:29.462Z,7.03
2023-11-25T00:44:46.327Z,5.55
2023-11-25T00:47:03.316Z,7.28
2023-11-25T00:49:20.313Z,8.48
2023-11-25T00:51:37.291Z,3.88
2023-11-25T00:53:54.236Z,7.93
2023-11-25T00:56:11.131Z,6.50
2023-11-25T00:58:28.029Z,9.65
2023-11-25T01:00:44.978Z,5.57
2023-11-25T01:03:01.910Z,3.08
2023-11-25T01:05:19.254Z,9.98
2023-11-25T01:07:36.173Z,6.22
2023-11-25T01:09:53.129Z,6.45
2023-11-25T01:12:10.016Z,3.53
2023-11-25T01:14:26.892Z,4.57
2023-11-25T01:16:43.832Z,5.05
2023-11-25T01:19:00.763Z,5.00
2023-11-25T01:21:17.667Z,4.30
2023-11-25T01:23:34.525Z,4.43
2023-11-25T01:25:51.414Z,7.10
2023-11-25T01:28:08.349Z,3.95
2023-11-25T01:30:25.244Z,5.75
2023-11-25T01:32:42.184Z,3.20
2023-11-25T01:34:59.131Z,5.78
2023-11-25T01:37:16.056Z,5.57
2023-11-25T01:39:32.952Z,4.38
2023-11-25T01:41:49.883Z,6.05
2023-11-25T01:44:06.776Z,7.57
2023-11-25T01:46:23.747Z,6.63
2023-11-25T01:48:40.624Z,5.25
2023-11-25T01:50:57.717Z,5.57
2023-11-25T01:53:14.555Z,3.78
2023-11-25T01:55:31.551Z,4.50
2023-11-25T01:57:48.414Z,7.82
2023-11-25T02:00:05.295Z,8.13
2023-11-25T02:02:22.336Z,7.47
2023-11-25T02:04:39.472Z,6.57
2023-11-25T02:06:56.364Z,5.32
2023-11-25T02:09:13.266Z,5.57
2023-11-25T02:11:30.143Z,4.03
2023-11-25T02:13:47.089Z,6.30
2023-11-25T02:16:04.191Z,6.13
2023-11-25T02:18:21.062Z,5.82
2023-11-25T02:20:37.973Z,7.03
2023-11-25T02:22:54.834Z,6.68
2023-11-25T02:25:11.732Z,5.03
2023-11-25T02:27:28.612Z,6.30
2023-11-25T02:29:45.476Z,8.15
2023-11-25T02:32:02.515Z,6.97
2023-11-25T02:34:19.554Z,3.85
2023-11-25T02:36:36.427Z,3.92
2023-11-25T02:38:53.281Z,5.90
2023-11-25T02:41:10.203Z,6.20
2023-11-25T02:43:27.166Z,5.65
2023-11-25T02:45:44.097Z,7.45
2023-11-25T02:48:01.079Z,5.68
2023-11-25T02:50:18.089Z,4.13
2023-11-25T02:52:35.054Z,4.63
2023-11-25T02:54:52.024Z,8.25
2023-11-25T02:57:08.899Z,3.35
2023-11-25T02:59:25.863Z,7.28
2023-11-25T03:01:42.863Z,6.72
2023-11-25T03:03:59.795Z,3.40
2023-11-25T03:06:16.709Z,6.07
2023-11-25T03:08:33.589Z,5.32
2023-11-25T03:10:50.485Z,7.55
2023-11-25T03:13:07.498Z,7.35
2023-11-25T03:15:24.420Z,3.83
2023-11-25T03:17:41.360Z,9.50
2023-11-25T03:19:58.242Z,7.10
2023-11-25T03:22:15.128Z,5.57
2023-11-25T03:24:31.996Z,5.70
2023-11-25T03:26:48.915Z,8.15
2023-11-25T03:29:05.771Z,9.65
2023-11-25T03:31:22.667Z,5.00
2023-11-25T03:33:39.554Z,5.82
2023-11-25T03:35:56.483Z,6.95
2023-11-25T03:38:13.410Z,5.78
2023-11-25T03:40:30.282Z,2.60
2023-11-25T03:42:47.225Z,5.53
2023-11-25T03:45:04.183Z,7.93
2023-11-25T03:47:21.089Z,3.95
2023-11-25T03:49:38.092Z,8.35
2023-11-25T03:51:55.033Z,8.05
2023-11-25T03:54:12.015Z,6.05
2023-11-25T03:56:28.907Z,5.60
2023-11-25T03:58:45.860Z,13.27
2023-11-25T04:01:02.866Z,6.07
2023-11-25T04:03:19.812Z,7.45
2023-11-25T04:05:36.735Z,8.02
2023-11-25T04:07:59.358Z,3.58
2023-11-25T04:10:24.733Z,4.75
2023-11-25T04:12:41.967Z,4.18
2023-11-25T04:14:58.945Z,5.47
2023-11-25T04:17:16.076Z,3.90
2023-11-25T04:19:33.098Z,10.02
2023-11-25T04:21:50.042Z,8.10
2023-11-25T04:24:06.946Z,12.38
2023-11-25T04:26:23.806Z,6.13
2023-11-25T04:28:40.837Z,3.92
2023-11-25T04:30:57.797Z,5.78
2023-11-25T04:33:14.675Z,7.63
2023-11-25T04:35:31.546Z,5.75
2023-11-25T04:37:51.391Z,6.57
2023-11-25T04:40:08.412Z,7.57
2023-11-25T04:42:25.333Z,10.18
2023-11-25T04:44:42.215Z,6.80
2023-11-25T04:46:59.187Z,9.55
2023-11-25T04:49:26.924Z,5.65
2023-11-25T04:51:43.827Z,12.02
2023-11-25T04:54:00.736Z,7.15
2023-11-25T04:56:17.595Z,3.67
2023-11-25T04:58:34.568Z,9.13
2023-11-25T05:00:51.515Z,5.20
2023-11-25T05:03:08.468Z,10.57
2023-11-25T05:05:26.402Z,6.35
2023-11-25T05:07:43.491Z,7.25
2023-11-25T05:10:00.515Z,5.38
2023-11-25T05:12:17.445Z,6.65
2023-11-25T05:14:34.343Z,9.48
2023-11-25T05:16:51.430Z,5.07
2023-11-25T05:19:08.438Z,7.47
2023-11-25T05:21:25.395Z,7.05
2023-11-25T05:23:42.410Z,4.90
2023-11-25T05:25:59.313Z,5.30
2023-11-25T05:28:16.251Z,5.40
2023-11-25T05:30:33.283Z,7.22
2023-11-25T05:32:50.278Z,5.15
2023-11-25T05:35:07.206Z,5.53
2023-11-25T05:37:24.115Z,9.65
2023-11-25T05:39:41.043Z,7.10
2023-11-25T05:41:57.961Z,12.05
2023-11-25T05:44:14.929Z,9.57
2023-11-25T05:46:31.943Z,8.63
2023-11-25T05:48:48.926Z,9.10
2023-11-25T05:51:05.796Z,5.95
2023-11-25T05:53:22.734Z,8.73
2023-11-25T05:55:39.767Z,5.38
2023-11-25T05:57:59.923Z,9.50
2023-11-25T06:00:17.661Z,5.95
2023-11-25T06:02:34.632Z,4.78
2023-11-25T06:04:51.743Z,8.07
2023-11-25T06:07:08.756Z,9.32
2023-11-25T06:09:25.663Z,6.10
2023-11-25T06:11:42.602Z,5.47
2023-11-25T06:13:59.500Z,6.82
2023-11-25T06:16:23.198Z,7.50
2023-11-25T06:20:57.126Z,7.25
2023-11-25T06:23:14.065Z,5.72
2023-11-25T06:25:31.004Z,10.45
2023-11-25T06:27:48.583Z,12.73
2023-11-25T06:30:05.681Z,10.02
2023-11-25T06:32:28.990Z,6.10
2023-11-25T06:34:46.248Z,6.68
2023-11-25T06:37:04.185Z,13.38
2023-11-25T06:39:26.122Z,8.60
2023-11-25T06:41:44.048Z,15.43
2023-11-25T06:44:01.306Z,19.20
2023-11-25T06:46:18.339Z,18.02
2023-11-25T06:48:35.405Z,23.75
2023-11-25T06:50:52.387Z,20.02
2023-11-25T06:53:09.361Z,18.38
2023-11-25T06:55:26.299Z,19.88
2023-11-25T06:57:43.380Z,13.75
2023-11-25T07:00:00.293Z,15.48
2023-11-25T07:02:17.253Z,22.48
2023-11-25T07:04:34.246Z,22.83
2023-11-25T07:06:51.245Z,33.50
2023-11-25T07:09:08.247Z,27.67
2023-11-25T07:11:25.198Z,27.23
2023-11-25T07:13:42.195Z,27.55
2023-11-25T07:15:59.231Z,21.77
2023-11-25T07:18:16.201Z,16.58
2023-11-25T07:20:33.207Z,13.13
2023-11-25T07:22:50.214Z,14.95
2023-11-25T07:25:07.274Z,15.18
2023-11-25T07:27:27.125Z,16.05
2023-11-25T07:29:44.564Z,15.35
2023-11-25T07:32:01.611Z,23.13
2023-11-25T07:34:18.667Z,16.73
2023-11-25T07:36:35.664Z,24.98
2023-11-25T07:38:52.596Z,23.25
2023-11-25T07:41:09.554Z,26.05
2023-11-25T07:43:26.573Z,16.88
2023-11-25T07:45:43.455Z,20.65
2023-11-25T07:48:00.421Z,18.25
2023-11-25T07:50:17.413Z,20.23
2023-11-25T07:52:34.482Z,20.13
2023-11-25T07:54:51.478Z,14.35
2023-11-25T07:57:08.445Z,13.70
2023-11-25T07:59:25.426Z,11.52
2023-11-25T08:01:42.507Z,14.85
2023-11-25T08:03:59.515Z,12.40
2023-11-25T08:06:16.455Z,12.98
2023-11-25T08:08:33.363Z,16.15
2023-11-25T08:10:50.374Z,15.32
2023-11-25T08:13:07.272Z,13.63
2023-11-25T08:15:24.173Z,14.38
2023-11-25T08:17:41.110Z,17.13
2023-11-25T08:19:58.085Z,20.05
2023-11-25T08:22:15.004Z,20.63
2023-11-25T08:24:31.878Z,15.40
2023-11-25T08:26:48.780Z,20.95
2023-11-25T08:29:05.724Z,15.32
2023-11-25T08:31:22.700Z,15.45
2023-11-25T08:33:39.700Z,18.52
2023-11-25T08:35:56.571Z,22.08
2023-11-25T08:38:13.461Z,20.35
2023-11-25T08:40:30.356Z,35.72
2023-11-25T08:42:47.537Z,90.15
2023-11-25T08:45:04.531Z,56.20
2023-11-25T08:47:21.401Z,32.83
2023-11-25T08:49:38.392Z,22.90
2023-11-25T08:51:55.340Z,18.63
2023-11-25T08:54:12.440Z,19.00
2023-11-25T08:56:33.145Z,14.20
2023-11-25T08:58:56.688Z,15.63
2023-11-25T09:01:18.196Z,12.98
2023-11-25T09:03:35.358Z,10.13
2023-11-25T09:05:52.470Z,16.65
2023-11-25T09:08:09.359Z,21.73
2023-11-25T09:10:26.900Z,17.48
2023-11-25T09:12:43.943Z,13.73
2023-11-25T09:15:01.032Z,15.88
2023-11-25T09:17:18.168Z,16.33
2023-11-25T09:19:35.072Z,18.48
2023-11-25T09:21:51.999Z,14.90
2023-11-25T09:24:08.903Z,14.38
2023-11-25T09:26:25.874Z,12.50
2023-11-25T09:28:42.832Z,9.55
2023-11-25T09:30:59.756Z,16.20
2023-11-25T09:33:16.690Z,14.60
2023-11-25T09:35:33.570Z,14.35
2023-11-25T09:37:50.517Z,8.57
2023-11-25T09:40:07.459Z,13.38
2023-11-25T09:42:24.467Z,14.82
2023-11-25T09:44:41.369Z,15.93
2023-11-25T09:46:58.396Z,7.88
2023-11-25T09:49:15.345Z,16.10
2023-11-25T09:51:32.281Z,16.63
2023-11-25T09:53:49.195Z,15.43
2023-11-25T09:56:06.247Z,15.80
2023-11-25T09:58:23.178Z,13.27
2023-11-25T10:00:40.133Z,18.17
2023-11-25T10:02:57.406Z,15.45
2023-11-25T10:05:14.425Z,18.15
2023-11-25T10:07:31.362Z,14.07
2023-11-25T10:09:48.285Z,16.17
2023-11-25T10:12:05.177Z,14.02
2023-11-25T10:14:22.128Z,17.40
2023-11-25T10:16:39.036Z,11.05
2023-11-25T10:18:55.987Z,16.88
2023-11-25T10:21:12.874Z,8.57
2023-11-25T10:23:29.804Z,10.55
2023-11-25T10:25:46.730Z,10.38
2023-11-25T10:28:03.654Z,9.27
2023-11-25T10:30:20.515Z,9.93
2023-11-25T10:32:37.392Z,9.05
2023-11-25T10:34:54.863Z,9.85
2023-11-25T10:37:11.797Z,9.85
2023-11-25T10:39:28.687Z,9.88
2023-11-25T10:41:45.577Z,8.93
2023-11-25T10:44:02.536Z,5.82
2023-11-25T10:46:19.670Z,11.02
2023-11-25T10:48:36.580Z,12.15
2023-11-25T10:50:56.134Z,10.27
2023-11-25T10:53:14.065Z,5.68
2023-11-25T10:55:31.087Z,9.35
2023-11-25T10:57:48.062Z,8.77
2023-11-25T11:00:04.954Z,8.23
2023-11-25T11:02:21.937Z,7.88
2023-11-25T11:04:39.017Z,6.60
2023-11-25T11:06:55.910Z,7.00
2023-11-25T11:09:12.772Z,6.18
2023-11-25T11:11:29.629Z,6.55
2023-11-25T11:13:46.544Z,8.43
2023-11-25T11:16:03.522Z,8.30
2023-11-25T11:18:20.573Z,7.30
2023-11-25T11:20:37.637Z,5.88
2023-11-25T11:22:54.585Z,6.65
2023-11-25T11:25:11.509Z,5.32
2023-11-25T11:27:28.402Z,5.85
2023-11-25T11:29:45.317Z,5.45
2023-11-25T11:32:02.572Z,7.60
2023-11-25T11:34:19.626Z,7.30
2023-11-25T11:36:36.536Z,7.57
2023-11-25T11:38:53.421Z,6.10
2023-11-25T11:41:10.358Z,8.70
2023-11-25T11:43:27.260Z,6.95
2023-11-25T11:45:44.135Z,4.75
2023-11-25T11:48:01.073Z,8.75
2023-11-25T11:50:17.989Z,5.20
2023-11-25T11:52:34.870Z,6.85
2023-11-25T11:54:51.780Z,5.43
2023-11-25T11:57:08.657Z,14.50
2023-11-25T11:59:25.576Z,10.00
2023-11-25T12:01:42.459Z,6.45
2023-11-25T12:03:59.508Z,10.98
2023-11-25T12:06:16.418Z,5.10
2023-11-25T12:08:33.864Z,4.80
2023-11-25T12:10:50.748Z,4.13
2023-11-25T12:13:07.801Z,2.65
2023-11-25T12:15:24.700Z,2.55
2023-11-25T12:17:41.739Z,4.32
2023-11-25T12:19:58.697Z,4.95
2023-11-25T12:22:15.645Z,4.38
2023-11-25T12:24:32.523Z,4.03
2023-11-25T12:26:49.445Z,3.45
2023-11-25T12:29:06.346Z,3.10
2023-11-25T12:31:23.323Z,3.70
2023-11-25T12:33:40.341Z,3.47
2023-11-25T12:35:57.251Z,3.78
2023-11-25T12:38:16.152Z,3.08
2023-11-25T12:40:33.819Z,3.17
2023-11-25T12:42:50.772Z,3.58
2023-11-25T12:45:07.672Z,2.10
2023-11-25T12:47:24.695Z,5.22
2023-11-25T12:49:41.567Z,4.10
2023-11-25T12:51:58.425Z,4.35
2023-11-25T12:54:15.375Z,2.85
2023-11-25T12:56:32.366Z,2.05
2023-11-25T12:58:49.323Z,3.88
2023-11-25T13:01:06.237Z,4.10
2023-11-25T13:03:23.337Z,3.25
2023-11-25T13:05:40.333Z,5.70
2023-11-25T13:07:57.273Z,1.80
2023-11-25T13:10:14.202Z,3.88
2023-11-25T13:12:31.179Z,2.03
2023-11-25T13:14:48.072Z,2.42
2023-11-25T13:17:05.003Z,3.97
2023-11-25T13:19:21.912Z,2.80
2023-11-25T13:21:38.899Z,3.35
2023-11-25T13:23:55.923Z,2.88
2023-11-25T13:26:12.833Z,2.70
2023-11-25T13:28:29.992Z,6.15
2023-11-25T13:30:46.908Z,4.50
2023-11-25T13:33:04.341Z,3.92
2023-11-25T13:35:21.484Z,5.75
2023-11-25T13:37:38.491Z,3.83
2023-11-25T13:39:55.453Z,6.20
2023-11-25T13:42:12.586Z,6.55
2023-11-25T13:44:29.511Z,8.23
2023-11-25T13:46:46.536Z,6.55
2023-11-25T13:49:03.800Z,6.10
2023-11-25T13:51:20.709Z,4.60
2023-11-25T13:53:37.602Z,3.42
2023-11-25T13:55:54.531Z,2.90
2023-11-25T13:58:11.496Z,5.63
2023-11-25T14:00:29.482Z,1.52
2023-11-25T14:02:46.472Z,3.83
2023-11-25T14:05:03.470Z,5.43
2023-11-25T14:07:20.443Z,7.22
2023-11-25T14:09:38.390Z,4.80
2023-11-25T14:11:55.419Z,2.80
2023-11-25T14:14:12.379Z,8.20
2023-11-25T14:16:29.457Z,1.98
2023-11-25T14:18:46.418Z,4.43
2023-11-25T14:21:03.320Z,3.97
2023-11-25T14:23:20.275Z,1.85
2023-11-25T14:25:37.235Z,4.35
2023-11-25T14:27:54.209Z,4.75
2023-11-25T14:30:11.115Z,9.18
2023-11-25T14:32:28.022Z,3.40
2023-11-25T14:34:44.977Z,3.78
2023-11-25T14:37:01.880Z,6.30
2023-11-25T14:39:18.790Z,7.05
2023-11-25T14:41:36.761Z,4.70
2023-11-25T14:43:54.047Z,11.45
2023-11-25T14:46:11.036Z,7.70
2023-11-25T14:48:27.989Z,4.63
2023-11-25T14:50:44.911Z,2.72
2023-11-25T14:53:01.915Z,5.78
2023-11-25T14:55:23.244Z,3.78
2023-11-25T14:57:40.339Z,6.15
2023-11-25T14:59:57.228Z,5.53
2023-11-25T15:02:14.231Z,3.45
2023-11-25T15:04:31.683Z,9.30
2023-11-25T15:06:48.967Z,3.13
2023-11-25T15:09:05.913Z,5.60
2023-11-25T15:11:22.889Z,5.35
2023-11-25T15:13:39.793Z,4.93
2023-11-25T15:15:56.766Z,2.53
2023-11-25T15:18:14.534Z,2.42
2023-11-25T15:20:32.707Z,2.85
2023-11-25T15:22:49.619Z,2.88
2023-11-25T15:25:06.519Z,4.25
2023-11-25T15:27:23.420Z,1.80
2023-11-25T15:29:40.364Z,4.28
2023-11-25T15:31:57.423Z,4.50
2023-11-25T15:34:14.402Z,6.22
2023-11-25T15:36:31.320Z,7.40
2023-11-25T15:38:48.243Z,4.07
2023-11-25T15:41:11.472Z,3.65
2023-11-25T15:43:28.456Z,5.95
2023-11-25T15:45:45.418Z,2.85
2023-11-25T15:48:02.406Z,5.38
2023-11-25T15:50:19.287Z,4.85
2023-11-25T15:52:36.238Z,4.20
2023-11-25T15:54:53.151Z,3.60
2023-11-25T15:57:10.166Z,8.18
2023-11-25T15:59:27.088Z,7.05
2023-11-25T16:01:44.038Z,8.57
2023-11-25T16:04:01.058Z,4.95
2023-11-25T16:06:18.111Z,5.00
2023-11-25T16:08:34.999Z,6.63
2023-11-25T16:10:51.913Z,6.03
2023-11-25T16:13:08.880Z,10.23
2023-11-25T16:15:25.960Z,8.98
2023-11-25T16:17:42.924Z,16.83
2023-11-25T16:19:59.858Z,9.20
2023-11-25T16:22:16.758Z,7.70
2023-11-25T16:24:33.693Z,4.47
2023-11-25T16:26:55.152Z,4.30
2023-11-25T16:29:12.058Z,5.47
2023-11-25T16:31:31.848Z,4.15
2023-11-25T16:33:48.861Z,8.13
2023-11-25T16:36:14.472Z,3.85
2023-11-25T16:38:31.371Z,4.65
2023-11-25T16:40:48.243Z,6.05
2023-11-25T16:43:05.220Z,4.43
2023-11-25T16:45:22.518Z,5.53
2023-11-25T16:47:39.556Z,4.95
2023-11-25T16:50:03.085Z,3.53
2023-11-25T16:52:29.436Z,2.45
2023-11-25T16:54:55.635Z,2.88
2023-11-25T16:57:12.546Z,5.57
2023-11-25T16:59:47.023Z,4.72
2023-11-25T17:02:24.571Z,4.47
2023-11-25T17:04:41.721Z,5.63
2023-11-25T17:06:58.722Z,4.70
2023-11-25T17:09:29.852Z,6.15
2023-11-25T17:11:49.239Z,6.95
2023-11-25T17:14:06.205Z,5.60
2023-11-25T17:19:00.466Z,7.78
2023-11-25T17:23:58.894Z,6.20
2023-11-25T17:26:22.034Z,3.58
2023-11-25T17:28:38.895Z,5.67
2023-11-25T17:30:55.829Z,4.70
2023-11-25T17:33:12.707Z,2.90
2023-11-25T17:35:29.621Z,5.18
2023-11-25T17:37:46.529Z,10.20
2023-11-25T17:40:03.452Z,4.45
2023-11-25T17:42:20.473Z,6.30
2023-11-25T17:44:37.361Z,5.72
2023-11-25T17:47:00.434Z,7.18
2023-11-25T17:49:17.605Z,7.20
2023-11-25T17:51:34.524Z,5.55
2023-11-25T17:53:51.430Z,7.97
2023-11-25T17:56:08.374Z,5.38
2023-11-25T17:58:25.466Z,8.30
2023-11-25T18:00:42.331Z,7.60
2023-11-25T18:02:59.569Z,6.63
2023-11-25T18:05:16.735Z,8.60
2023-11-25T18:07:33.789Z,8.05
2023-11-25T18:09:50.724Z,9.10
2023-11-25T18:12:07.639Z,6.40
2023-11-25T18:14:25.219Z,8.30
2023-11-25T18:16:45.015Z,5.85
2023-11-25T18:19:02.684Z,10.75
2023-11-25T18:21:19.686Z,10.20
2023-11-25T18:23:36.563Z,8.55
2023-11-25T18:25:53.573Z,6.82
2023-11-25T18:28:14.003Z,4.55
2023-11-25T18:30:31.923Z,7.95
2023-11-25T18:32:48.865Z,6.53
2023-11-25T18:35:05.935Z,7.55
2023-11-25T18:37:22.835Z,9.35
2023-11-25T18:39:39.708Z,8.35
2023-11-25T18:41:56.634Z,6.53
2023-11-25T18:44:22.662Z,5.65
2023-11-25T18:46:39.766Z,7.32
2023-11-25T18:49:03.081Z,6.72
2023-11-25T18:51:19.955Z,6.60
2023-11-25T18:53:36.939Z,8.10
2023-11-25T18:55:54.487Z,7.53
2023-11-25T18:58:12.259Z,8.88
2023-11-25T19:00:29.314Z,4.78
2023-11-25T19:05:33.698Z,6.00
2023-11-25T19:07:50.580Z,6.13
2023-11-25T19:10:07.716Z,7.25
2023-11-25T19:12:24.849Z,6.95
2023-11-25T19:14:44.760Z,8.38
2023-11-25T19:17:01.724Z,7.63
2023-11-25T19:19:18.692Z,8.35
2023-11-25T19:21:35.625Z,9.60
2023-11-25T19:23:52.553Z,5.05
2023-11-25T19:26:09.503Z,7.53
2023-11-25T19:28:26.419Z,6.90
2023-11-25T19:30:43.674Z,8.25
2023-11-25T19:33:00.715Z,7.32
2023-11-25T19:35:17.773Z,8.80
2023-11-25T19:37:34.629Z,5.35
2023-11-25T19:39:51.555Z,8.27
2023-11-25T19:42:08.443Z,5.35
2023-11-25T19:44:25.297Z,3.67
2023-11-25T19:46:42.214Z,2.95
2023-11-25T19:48:59.183Z,4.75
2023-11-25T19:51:16.032Z,5.78
2023-11-25T19:53:49.441Z,2.65
2023-11-25T19:56:08.529Z,5.70
2023-11-25T19:58:25.451Z,3.80
2023-11-25T20:00:49.388Z,5.15
2023-11-25T20:03:12.989Z,4.55
2023-11-25T20:05:29.966Z,5.85
2023-11-25T20:07:47.053Z,8.07
2023-11-25T20:10:04.028Z,5.15
2023-11-25T20:12:20.931Z,6.45
2023-11-25T20:14:37.785Z,4.15
2023-11-25T20:16:54.848Z,5.75
2023-11-25T20:19:11.765Z,7.72
2023-11-25T20:21:28.644Z,7.93
2023-11-25T20:23:45.630Z,6.60
2023-11-25T20:26:02.585Z,10.95
2023-11-25T20:28:19.474Z,5.72
2023-11-25T20:30:36.343Z,7.40
2023-11-25T20:32:53.261Z,5.22
2023-11-25T20:35:10.354Z,6.65
2023-11-25T20:37:27.306Z,11.23
2023-11-25T20:39:44.237Z,6.80
2023-11-25T20:42:01.135Z,5.75
2023-11-25T20:44:18.074Z,4.72
2023-11-25T20:46:34.983Z,5.70
2023-11-25T20:48:51.877Z,4.40
2023-11-25T20:51:08.807Z,1.95
2023-11-25T20:53:25.744Z,2.33
2023-11-25T20:55:42.673Z,2.58
2023-11-25T20:57:59.585Z,2.10
2023-11-25T21:00:16.552Z,2.28
2023-11-25T21:02:33.580Z,1.15
2023-11-25T21:04:50.543Z,4.07
2023-11-25T21:07:07.431Z,1.38
2023-11-25T21:09:24.338Z,1.40
2023-11-25T21:11:41.263Z,0.77
2023-11-25T21:13:58.133Z,2.47
2023-11-25T21:16:16.107Z,1.17
2023-11-25T21:18:33.119Z,3.75
2023-11-25T21:20:50.025Z,2.13
2023-11-25T21:23:06.925Z,0.65
2023-11-25T21:25:23.823Z,0.75
2023-11-25T21:27:40.706Z,1.02
2023-11-25T21:29:57.621Z,2.13
2023-11-25T21:32:14.542Z,0.93
2023-11-25T21:34:31.535Z,0.98
2023-11-25T21:36:48.417Z,0.73
2023-11-25T21:39:05.325Z,1.38
2023-11-25T21:41:22.194Z,0.60
2023-11-25T21:43:39.151Z,2.60
2023-11-25T21:45:56.102Z,2.30
2023-11-25T21:48:13.036Z,2.22
2023-11-25T21:50:29.892Z,1.38
2023-11-25T21:52:46.947Z,2.38
2023-11-25T21:55:03.915Z,1.25
2023-11-25T21:57:20.809Z,1.17
2023-11-25T21:59:37.686Z,1.00
2023-11-25T22:01:54.751Z,2.00
2023-11-25T22:04:11.701Z,1.65
2023-11-25T22:06:28.647Z,1.67
2023-11-25T22:08:45.533Z,1.10
2023-11-25T22:11:02.460Z,2.20
2023-11-25T22:13:19.379Z,0.68
2023-11-25T22:15:37.568Z,2.00
2023-11-25T22:17:54.670Z,2.30
2023-11-25T22:20:11.629Z,1.52
2023-11-25T22:22:28.703Z,0.60
2023-11-25T22:24:45.635Z,2.15
2023-11-25T22:27:02.568Z,2.30
2023-11-25T22:29:19.507Z,3.08
2023-11-25T22:31:36.466Z,5.82
2023-11-25T22:33:53.425Z,4.40
2023-11-25T22:36:10.326Z,4.63
2023-11-25T22:38:28.638Z,2.95
2023-11-25T22:40:45.578Z,0.77
2023-11-25T22:43:02.492Z,1.58
2023-11-25T22:45:19.370Z,2.08
2023-11-25T22:47:36.315Z,5.20
2023-11-25T22:49:53.249Z,4.30
2023-11-25T22:52:10.142Z,5.65
2023-11-25T22:54:27.038Z,5.72
2023-11-25T22:56:43.895Z,5.57
2023-11-25T22:59:00.821Z,4.70
2023-11-25T23:01:17.838Z,5.40
2023-11-25T23:03:34.892Z,3.42
2023-11-25T23:05:51.923Z,3.03
2023-11-25T23:08:08.822Z,2.20
2023-11-25T23:10:25.739Z,2.75
2023-11-25T23:12:42.646Z,2.28
2023-11-25T23:14:59.583Z,1.85
2023-11-25T23:17:16.568Z,1.35
2023-11-25T23:19:33.465Z,3.55
2023-11-25T23:21:50.316Z,2.03
2023-11-25T23:24:07.289Z,1.33
2023-11-25T23:26:24.205Z,2.30
2023-11-25T23:28:41.093Z,1.02
2023-11-25T23:30:57.947Z,2.03
2023-11-25T23:33:14.898Z,1.77
2023-11-25T23:35:31.774Z,1.63
2023-11-25T23:37:48.783Z,1.90
2023-11-25T23:40:05.738Z,2.00
2023-11-25T23:42:22.611Z,3.80
2023-11-25T23:44:39.470Z,1.55
2023-11-25T23:46:56.380Z,1.25
2023-11-25T23:49:13.354Z,1.77
2023-11-25T23:51:30.279Z,2.00
2023-11-25T23:53:47.173Z,1.77
2023-11-25T23:56:04.083Z,3.10
2023-11-25T23:58:21.052Z,2.33
